Aeroporto :
LOGIN :

Iscrizione | Disclaimer

   EN    FR    IT 

 










Sommario :    VFR   VFR Marginale   IFR   IFR Intensivo   IFR Molto Intensivo
Visibilità : 
Base nubi : 
>= 8 km
>= 3000ft
5 / 8 km
1000 / 3000 ft
1500m / 5 km
500 / 1000 ft
800 / 1500m
200 / 500 ft
< 800m
< 200 ft
Simboli :   Temporali  Nebbia  Neve Forte  Precipitazioni Forti  Vento > 20 kt
SIGMETs :   Varie  Temporali  Ghiacco  Turbolenza  Onda orograficha  Ceneri Vulcaniche







- Altitudine del aeroporto : 348 ft
- Codice IATA : LDV
- Carte del aeroporto


LFRJ - Landivisiau

ULTIMO METAR :
  • 150600Z AUTO 17017KT 9999 -RA FEW007/// BKN017/// BKN024/// ///TCU 08/08 Q1010

METARs OBSOLETI :
  • 150530Z AUTO 17016KT 6000 RA BKN006/// BKN024/// BKN045/// ///TCU 08/07 Q1010
  • 150500Z AUTO 16017KT 9999 -RA BKN006/// BKN024/// OVC038/// ///CB 08/07 Q1010
  • 150430Z AUTO 16019KT 8000 -DZ BKN006/// BKN016/// BKN022/// ///TCU 08/07 Q1010
  • 150400Z AUTO 17018KT 7000 -DZ OVC006 07/07 Q1011
  • 150330Z AUTO 16019G29KT 6000 -RADZ OVC006 07/07 Q1011

Previsioni scadute.
Nessun NOTAM noto per questo aeroporto.
1 SIGMET conosciuto per la FIR Brest (LFRR) :
 
forte formazione di ghiaccio e pioggia congelantesi
LFRR SIGMET 1 VALID 150500/150800 LFPW
LFRR BREST FIR/UIR SEV ICE (FZRA) FCST WI N4945 W00015 - N4645 W00015 - N4645 W00130 - N4930 W00245 - N4945 W00015 SFC/FL070 MOV E 15KT NC=



MetMap, La meteo Aeronautica in un colpo d'occhio ! - Copyright ORBIFLY Dicembre 2007 - Disclaimer

ORBIFLY MET'MAP TEAM :

Programmazione e sviluppo : Alexandra Zaïnal
Concezione e sviluppo : Baudouin d'Aumeries
Co-Programmazione e sviluppo : Marc-Olivier Méhu
Supporto tecnico e logistico : Manuel Goepfert
Aiuto per la traduzione : Arnaldo La Scala

Contatto : metmap@orbifly.com




FONTI E CREDITI :

   NOAA